createdAt,value
2018-09-18T00:02:54.677Z,99.60
2018-09-18T00:07:59.151Z,99.60
2018-09-18T00:13:04.489Z,99.60
2018-09-18T00:18:08.946Z,99.60
2018-09-18T00:23:13.515Z,99.60
2018-09-18T00:28:18.764Z,99.60
2018-09-18T00:33:23.418Z,99.60
2018-09-18T00:38:28.348Z,99.60
2018-09-18T00:43:32.809Z,99.60
2018-09-18T00:48:37.460Z,99.60
2018-09-18T00:53:42.079Z,99.60
2018-09-18T00:58:46.595Z,99.60
2018-09-18T01:03:51.073Z,99.60
2018-09-18T01:08:56.207Z,99.60
2018-09-18T01:14:01.246Z,99.60
2018-09-18T01:19:05.738Z,99.60
2018-09-18T01:24:10.507Z,99.60
2018-09-18T01:29:15.676Z,99.60
2018-09-18T01:34:20.997Z,99.60
2018-09-18T01:39:25.553Z,99.60
2018-09-18T01:44:30.300Z,99.60
2018-09-18T01:49:35.582Z,99.60
2018-09-18T01:54:40.110Z,99.60
2018-09-18T01:59:44.559Z,99.60
2018-09-18T02:04:49.830Z,99.60
2018-09-18T02:09:55.356Z,99.60
2018-09-18T02:14:59.865Z,99.60
2018-09-18T02:20:04.729Z,99.60
2018-09-18T02:25:09.259Z,99.60
2018-09-18T02:30:13.792Z,99.60
2018-09-18T02:35:18.464Z,99.60
2018-09-18T02:40:23.165Z,99.60
2018-09-18T02:45:27.700Z,99.60
2018-09-18T02:50:32.219Z,99.60
2018-09-18T02:55:36.857Z,99.60
2018-09-18T03:00:41.333Z,99.60
2018-09-18T03:05:47.302Z,99.60
2018-09-18T03:10:51.820Z,99.60
2018-09-18T03:15:56.265Z,99.60
2018-09-18T03:21:00.854Z,99.60
2018-09-18T03:26:05.316Z,99.60
2018-09-18T03:31:09.860Z,99.60
2018-09-18T03:36:14.288Z,99.60
2018-09-18T03:41:18.851Z,99.60
2018-09-18T03:46:23.479Z,99.60
2018-09-18T03:51:28.195Z,99.60
2018-09-18T03:56:32.934Z,99.60
2018-09-18T04:01:37.609Z,99.60
2018-09-18T04:06:41.935Z,99.60
2018-09-18T04:11:46.478Z,99.60
2018-09-18T04:16:50.901Z,99.60
2018-09-18T04:21:55.380Z,99.60
2018-09-18T04:27:01.527Z,99.60
2018-09-18T04:32:06.222Z,99.60
2018-09-18T04:37:11.951Z,99.60
2018-09-18T04:42:16.798Z,99.60
2018-09-18T04:47:21.432Z,99.60
2018-09-18T04:52:26.042Z,99.60
2018-09-18T04:57:30.568Z,99.60
2018-09-18T05:02:34.880Z,99.60
2018-09-18T05:07:39.214Z,99.60
2018-09-18T05:12:43.781Z,99.60
2018-09-18T05:17:48.355Z,99.60
2018-09-18T05:22:53.569Z,99.60
2018-09-18T05:27:57.900Z,99.60
2018-09-18T05:33:02.330Z,99.60
2018-09-18T05:38:06.558Z,99.60
2018-09-18T05:43:10.875Z,99.60
2018-09-18T05:48:15.549Z,99.60
2018-09-18T05:53:20.155Z,99.60
2018-09-18T05:58:25.152Z,99.60
2018-09-18T06:03:29.963Z,99.60
2018-09-18T06:08:35.628Z,99.60
2018-09-18T06:13:40.954Z,99.60
2018-09-18T06:18:46.234Z,99.60
2018-09-18T06:23:51.242Z,99.60
2018-09-18T06:28:56.320Z,99.60
2018-09-18T06:34:00.925Z,99.60
2018-09-18T06:39:08.296Z,99.60
2018-09-18T06:44:12.865Z,99.60
2018-09-18T06:49:17.430Z,99.60
2018-09-18T06:54:22.508Z,99.60
2018-09-18T06:59:27.022Z,99.60
2018-09-18T07:04:31.359Z,99.60
2018-09-18T07:09:36.337Z,99.60
2018-09-18T07:14:40.784Z,99.60
2018-09-18T07:19:45.168Z,99.60
2018-09-18T07:24:49.624Z,99.60
2018-09-18T07:29:54.540Z,99.60
2018-09-18T07:34:59.535Z,99.60
2018-09-18T07:40:04.192Z,99.60
2018-09-18T07:45:09.419Z,99.60
2018-09-18T07:50:15.189Z,99.60
2018-09-18T07:55:20.167Z,99.60
2018-09-18T08:00:25.704Z,99.60
2018-09-18T08:05:36.035Z,99.60
2018-09-18T08:10:42.806Z,99.60
2018-09-18T08:15:48.188Z,99.60
2018-09-18T08:20:52.673Z,99.60
2018-09-18T08:25:57.368Z,99.60
2018-09-18T08:31:02.046Z,99.60
2018-09-18T08:36:06.635Z,99.60
2018-09-18T08:41:11.219Z,99.60
2018-09-18T08:46:16.215Z,99.60
2018-09-18T08:51:20.926Z,99.60
2018-09-18T08:56:25.402Z,99.60
2018-09-18T09:01:30.227Z,99.40
2018-09-18T09:06:34.687Z,98.10
2018-09-18T09:11:38.897Z,96.90
2018-09-18T09:16:43.504Z,97.20
2018-09-18T09:21:48.100Z,97.40
2018-09-18T09:26:52.825Z,97.30
2018-09-18T09:31:57.473Z,96.60
2018-09-18T09:37:02.042Z,99.20
2018-09-18T09:42:07.062Z,99.40
2018-09-18T09:47:11.782Z,97.60
2018-09-18T09:52:16.304Z,96.10
2018-09-18T09:57:21.223Z,95.20
2018-09-18T10:02:28.580Z,93.90
2018-09-18T10:07:33.284Z,93.80
2018-09-18T10:12:37.819Z,93.20
2018-09-18T10:17:43.679Z,91.70
2018-09-18T10:22:48.110Z,90.40
2018-09-18T10:27:53.651Z,88.70
2018-09-18T10:32:58.297Z,89.60
2018-09-18T10:38:02.755Z,88.50
2018-09-18T10:43:07.784Z,89.60
2018-09-18T10:48:13.270Z,90.20
2018-09-18T10:53:18.494Z,89.30
2018-09-18T10:58:23.044Z,88.50
2018-09-18T11:03:27.675Z,89.00
2018-09-18T11:08:32.161Z,89.00
2018-09-18T11:13:36.481Z,90.50
2018-09-18T11:18:41.587Z,91.50
2018-09-18T11:23:46.107Z,91.90
2018-09-18T11:28:50.614Z,93.60
2018-09-18T11:33:55.412Z,94.80
2018-09-18T11:39:00.004Z,95.50
2018-09-18T11:44:05.127Z,95.60
2018-09-18T11:49:09.671Z,94.50
2018-09-18T11:54:14.313Z,95.10
2018-09-18T11:59:18.719Z,94.80
2018-09-18T12:04:23.285Z,95.10
2018-09-18T12:09:28.591Z,95.30
2018-09-18T12:14:33.709Z,96.00
2018-09-18T12:19:38.823Z,96.60
2018-09-18T12:24:43.575Z,96.90
2018-09-18T12:29:48.217Z,97.30
2018-09-18T12:34:52.725Z,97.20
2018-09-18T12:39:57.339Z,95.60
2018-09-18T12:45:01.850Z,96.70
2018-09-18T12:50:07.541Z,96.50
2018-09-18T12:55:12.049Z,96.30
2018-09-18T13:00:16.615Z,95.80
2018-09-18T13:05:21.163Z,95.40
2018-09-18T13:10:26.112Z,94.60
2018-09-18T13:15:31.363Z,94.90
2018-09-18T13:20:36.074Z,94.80
2018-09-18T13:25:40.369Z,93.70
2018-09-18T13:30:45.411Z,92.80
2018-09-18T13:35:49.949Z,91.80
2018-09-18T13:40:54.595Z,90.70
2018-09-18T13:45:59.106Z,89.50
2018-09-18T13:51:05.207Z,89.50
2018-09-18T13:56:09.822Z,90.40
2018-09-18T14:01:14.227Z,91.10
2018-09-18T14:06:18.951Z,89.90
2018-09-18T14:11:23.511Z,90.20
2018-09-18T14:16:27.999Z,89.70
2018-09-18T14:21:32.871Z,89.00
2018-09-18T14:26:38.492Z,89.80
2018-09-18T14:31:43.079Z,90.80
2018-09-18T14:36:50.315Z,89.20
2018-09-18T14:41:55.015Z,86.60
2018-09-18T14:46:59.479Z,85.10
2018-09-18T14:52:04.648Z,83.70
2018-09-18T14:57:09.181Z,84.00
2018-09-18T15:02:14.113Z,83.00
2018-09-18T15:07:19.469Z,85.60
2018-09-18T15:12:23.887Z,87.40
2018-09-18T15:17:29.135Z,87.20
2018-09-18T15:22:34.439Z,87.00
2018-09-18T15:27:38.921Z,82.30
2018-09-18T15:32:48.482Z,79.00
2018-09-18T15:37:53.279Z,76.40
2018-09-18T15:42:57.914Z,74.90
2018-09-18T15:48:06.527Z,74.90
2018-09-18T15:53:11.338Z,75.20
2018-09-18T15:58:15.866Z,77.90
2018-09-18T16:03:21.413Z,81.40
2018-09-18T16:08:25.749Z,84.80
2018-09-18T16:13:30.591Z,85.30
2018-09-18T16:18:35.184Z,86.00
2018-09-18T16:23:39.676Z,85.30
2018-09-18T16:28:44.782Z,86.60
2018-09-18T16:39:15.228Z,88.60
2018-09-18T16:44:20.346Z,89.60
2018-09-18T16:49:25.098Z,90.10
2018-09-18T16:54:30.473Z,91.40
2018-09-18T16:59:35.037Z,92.10
2018-09-18T17:04:39.553Z,94.00
2018-09-18T17:09:43.995Z,95.40
2018-09-18T17:14:48.630Z,97.00
2018-09-18T17:19:59.569Z,98.30
2018-09-18T17:25:04.630Z,99.60
2018-09-18T17:30:10.560Z,99.60
2018-09-18T17:35:15.111Z,99.60
2018-09-18T17:40:19.808Z,99.60
2018-09-18T17:45:25.223Z,99.60
2018-09-18T17:50:30.019Z,99.60
2018-09-18T17:55:35.304Z,99.60
2018-09-18T18:00:39.846Z,99.60
2018-09-18T18:05:44.507Z,99.60
2018-09-18T18:10:48.914Z,99.60
2018-09-18T18:15:53.406Z,99.60
2018-09-18T18:20:58.654Z,99.60
2018-09-18T18:26:04.053Z,99.60
2018-09-18T18:31:08.552Z,99.60
2018-09-18T18:36:13.415Z,99.60
2018-09-18T18:41:18.038Z,99.60
2018-09-18T18:46:23.301Z,99.60
2018-09-18T18:51:28.472Z,99.60
2018-09-18T18:56:34.341Z,99.60
2018-09-18T19:01:39.075Z,99.60
2018-09-18T19:06:44.341Z,99.60
2018-09-18T19:11:51.158Z,99.60
2018-09-18T19:16:57.819Z,99.60
2018-09-18T19:22:04.357Z,99.60
2018-09-18T19:27:11.300Z,99.60
2018-09-18T19:32:17.671Z,99.60
2018-09-18T19:37:26.998Z,99.60
2018-09-18T19:42:33.817Z,99.60
2018-09-18T19:47:40.319Z,99.60
2018-09-18T19:52:48.546Z,99.60
2018-09-18T19:57:54.230Z,99.60
2018-09-18T20:02:59.661Z,99.60
2018-09-18T20:08:05.251Z,99.60
2018-09-18T20:13:14.466Z,99.60
2018-09-18T20:18:19.273Z,99.60
2018-09-18T20:23:24.527Z,99.60
2018-09-18T20:28:30.075Z,99.60
2018-09-18T20:33:35.056Z,99.60
2018-09-18T20:38:39.946Z,99.60
2018-09-18T20:43:45.134Z,99.60
2018-09-18T20:48:50.182Z,99.60
2018-09-18T20:53:54.865Z,99.60
2018-09-18T20:59:01.210Z,99.60
2018-09-18T21:04:07.225Z,99.60
2018-09-18T21:09:14.593Z,99.60
2018-09-18T21:14:22.202Z,99.60
2018-09-18T21:19:29.726Z,99.00
2018-09-18T21:24:34.448Z,98.90
2018-09-18T21:29:39.515Z,98.60
2018-09-18T21:34:44.438Z,98.50
2018-09-18T21:39:56.422Z,98.50
2018-09-18T21:45:02.261Z,98.10
2018-09-18T21:50:07.744Z,97.20
2018-09-18T21:55:18.580Z,96.30
2018-09-18T22:00:25.438Z,99.60
2018-09-18T22:05:34.293Z,99.60
2018-09-18T22:10:38.841Z,99.60
2018-09-18T22:15:43.813Z,99.60
2018-09-18T22:20:49.027Z,99.60
2018-09-18T22:25:53.544Z,99.60
2018-09-18T22:30:58.166Z,99.60
2018-09-18T22:36:02.630Z,99.60
2018-09-18T22:41:07.180Z,99.60
2018-09-18T22:46:11.804Z,99.60
2018-09-18T22:51:16.452Z,99.60
2018-09-18T22:56:20.848Z,99.60
2018-09-18T23:01:25.520Z,99.60
2018-09-18T23:06:30.749Z,99.60
2018-09-18T23:11:35.490Z,99.60
2018-09-18T23:16:40.079Z,99.60
2018-09-18T23:21:45.319Z,99.60
2018-09-18T23:26:49.622Z,99.60
2018-09-18T23:31:54.661Z,99.60
2018-09-18T23:36:59.408Z,99.60
2018-09-18T23:42:04.521Z,99.60
2018-09-18T23:47:09.262Z,99.60
2018-09-18T23:52:13.926Z,99.60
2018-09-18T23:57:18.456Z,99.60
